Time;durP1;ratioP1;P1;durP2;ratioP2;P2;SDS_P1;SDS_P2;PMS_P1;PMS_P2;Temp;Humidity;BMP_temperature;BMP_pressure;BME280_temperature;BME280_humidity;BME280_pressure;Samples;Min_cycle;Max_cycle;Signal;HPM_P1;HPM_P2
2023/04/12 00:01:06;;;;;;;;;1.00;1.00;;;;;11.99;64.74;100104.72;5063876;28;45402;-81
2023/04/12 00:03:35;;;;;;;;;2.25;2.00;;;;;11.98;64.71;100091.59;5076285;28;45393;-83
2023/04/12 00:06:02;;;;;;;;;2.75;2.00;;;;;11.98;64.25;100075.88;5076971;28;45474;-84
2023/04/12 00:08:32;;;;;;;;;1.00;1.00;;;;;11.95;64.17;100068.88;5077103;28;45895;-83
2023/04/12 00:11:00;;;;;;;;;2.00;2.00;;;;;11.89;64.35;100066.16;5076279;28;45435;-73
2023/04/12 00:13:25;;;;;;;;;1.75;0.00;;;;;11.87;64.70;100076.56;5059656;28;45410;-68
2023/04/12 00:15:51;;;;;;;;;1.00;1.00;;;;;11.84;64.23;100078.25;5066383;28;45447;-83
2023/04/12 00:18:16;;;;;;;;;1.00;1.00;;;;;11.72;64.56;100071.94;5076402;28;45580;-83
2023/04/12 00:20:42;;;;;;;;;2.50;1.00;;;;;11.67;65.29;100089.28;5073229;27;45683;-84
2023/04/12 00:23:11;;;;;;;;;1.00;1.00;;;;;11.49;65.89;100088.97;5056784;28;45627;-76
2023/04/12 00:25:38;;;;;;;;;3.00;2.00;;;;;11.43;65.40;100083.63;5075517;28;45343;-81
2023/04/12 00:28:04;;;;;;;;;3.00;1.00;;;;;11.37;65.64;100071.28;5076374;28;45556;-83
2023/04/12 00:30:30;;;;;;;;;2.75;2.00;;;;;11.47;65.21;100078.47;5074936;28;45474;-82
2023/04/12 00:32:56;;;;;;;;;1.00;1.00;;;;;11.46;65.54;100060.13;5076633;28;45464;-68
2023/04/12 00:35:21;;;;;;;;;1.75;1.75;;;;;11.54;65.40;100074.25;5075575;28;45712;-84
2023/04/12 00:37:47;;;;;;;;;2.00;2.00;;;;;11.55;65.55;100062.91;5075930;28;45840;-84
2023/04/12 00:40:12;;;;;;;;;2.00;2.00;;;;;11.54;65.14;100053.31;5075794;28;45556;-82
2023/04/12 00:42:38;;;;;;;;;1.25;1.00;;;;;11.55;64.91;100045.47;5076882;27;45438;-82
2023/04/12 00:45:05;;;;;;;;;0.00;0.00;;;;;11.50;64.64;100035.81;5075775;28;45867;-83
2023/04/12 00:47:33;;;;;;;;;2.00;2.00;;;;;11.47;65.06;100031.38;5075148;28;45382;-84
2023/04/12 00:50:00;;;;;;;;;1.00;1.00;;;;;11.48;64.87;100030.53;5073874;28;45768;-82
2023/04/12 00:52:27;;;;;;;;;2.00;1.50;;;;;11.45;65.22;100030.47;5073227;28;45504;-81
2023/04/12 00:54:53;;;;;;;;;2.00;1.00;;;;;11.41;65.67;100033.00;5068922;28;46129;-83
2023/04/12 00:57:19;;;;;;;;;2.50;2.50;;;;;11.28;65.70;100004.03;5067803;28;45414;-80
2023/04/12 00:59:45;;;;;;;;;3.00;2.00;;;;;11.26;66.00;100020.50;5075214;28;45400;-83
2023/04/12 01:02:11;;;;;;;;;2.25;1.75;;;;;11.12;66.03;100021.16;5061457;28;45436;-83
2023/04/12 01:04:37;;;;;;;;;1.00;1.00;;;;;11.05;66.13;100021.00;5075187;28;45957;-68
2023/04/12 01:07:06;;;;;;;;;1.25;1.25;;;;;11.11;66.17;100031.56;5075539;28;45395;-68
2023/04/12 01:09:40;;;;;;;;;2.00;2.00;;;;;11.06;66.44;100027.97;5075571;28;45541;-83
2023/04/12 01:12:35;;;;;;;;;1.75;1.00;;;;;11.04;66.89;100022.75;5075824;28;45375;-68
2023/04/12 01:15:10;;;;;;;;;1.00;1.00;;;;;11.06;66.75;100027.97;5076262;28;46166;-83
2023/04/12 01:17:58;;;;;;;;;1.75;1.75;;;;;10.93;67.58;100019.03;5076344;28;45486;-68
2023/04/12 01:20:30;;;;;;;;;2.00;1.00;;;;;10.80;68.11;100009.16;5076667;28;45526;-83
2023/04/12 01:23:08;;;;;;;;;2.00;1.50;;;;;10.80;67.98;100017.88;5077035;28;45537;-69
2023/04/12 01:25:39;;;;;;;;;2.00;1.00;;;;;10.82;68.33;100010.09;5076208;28;45548;-68
2023/04/12 01:28:07;;;;;;;;;2.00;1.50;;;;;10.71;68.51;100018.59;5076597;28;45551;-75
2023/04/12 01:30:33;;;;;;;;;2.50;1.50;;;;;10.74;68.29;99999.47;5056881;28;45363;-68
2023/04/12 01:33:03;;;;;;;;;3.00;2.00;;;;;10.79;68.15;99999.59;5073039;28;45365;-69
2023/04/12 01:35:31;;;;;;;;;1.75;1.00;;;;;10.82;67.60;99991.78;5076324;28;46144;-68
2023/04/12 01:37:57;;;;;;;;;2.00;1.00;;;;;10.84;67.35;99984.88;5076003;28;45560;-74
2023/04/12 01:40:26;;;;;;;;;1.00;1.00;;;;;10.85;67.71;99986.66;5073529;28;45666;-68
2023/04/12 01:43:06;;;;;;;;;3.75;2.25;;;;;10.83;67.56;99967.44;5075720;28;45440;-70
2023/04/12 01:45:32;;;;;;;;;2.00;2.00;;;;;10.80;67.99;99969.97;5079786;27;46096;-79
2023/04/12 01:47:59;;;;;;;;;1.50;1.50;;;;;10.59;68.58;99952.16;5045157;28;45379;-67
2023/04/12 01:50:34;;;;;;;;;2.25;2.00;;;;;10.60;68.72;99975.69;5055411;28;45531;-67
2023/04/12 01:53:15;;;;;;;;;3.00;2.00;;;;;10.49;68.57;99946.75;5076001;28;45546;-68
2023/04/12 01:55:44;;;;;;;;;2.00;1.00;;;;;10.64;67.54;99968.78;5078847;28;46221;-68
2023/04/12 01:58:11;;;;;;;;;2.00;2.00;;;;;10.59;67.93;99965.22;5078635;27;45378;-83
2023/04/12 02:00:39;;;;;;;;;1.75;1.75;;;;;10.57;68.14;99965.19;5045211;28;45513;-68
2023/04/12 02:03:05;;;;;;;;;2.00;2.00;;;;;10.54;68.40;99971.22;5079145;27;45491;-68
2023/04/12 02:05:32;;;;;;;;;2.00;2.00;;;;;10.54;68.69;99971.22;5079386;28;45580;-68
2023/04/12 02:08:01;;;;;;;;;0.25;0.25;;;;;10.52;68.03;99970.31;5046561;28;45730;-67
2023/04/12 02:10:28;;;;;;;;;1.00;1.00;;;;;10.45;68.09;99970.16;5078829;28;46066;-67
2023/04/12 02:12:54;;;;;;;;;1.25;1.25;;;;;10.39;69.21;99963.06;5072728;28;45431;-68
2023/04/12 02:15:20;;;;;;;;;0.75;0.75;;;;;10.42;68.00;99957.91;5070357;28;46098;-80
2023/04/12 02:17:46;;;;;;;;;2.00;2.00;;;;;10.27;68.83;99942.75;5079729;28;45553;-68
2023/04/12 02:20:11;;;;;;;;;2.75;2.00;;;;;10.40;68.70;99961.31;5066311;28;45544;-67
2023/04/12 02:22:37;;;;;;;;;2.00;1.50;;;;;10.45;68.87;99957.97;5077692;28;45381;-68
2023/04/12 02:25:05;;;;;;;;;2.00;2.00;;;;;10.48;68.88;99954.53;5078988;28;45886;-68
2023/04/12 02:27:31;;;;;;;;;3.00;2.00;;;;;10.49;68.84;99951.97;5079330;28;45417;-68
2023/04/12 02:29:57;;;;;;;;;1.00;1.00;;;;;10.49;68.88;99951.97;5079665;28;45222;-68
2023/04/12 02:32:23;;;;;;;;;2.25;1.75;;;;;10.42;68.91;99943.97;5079579;28;45536;-68
2023/04/12 02:34:50;;;;;;;;;3.00;2.00;;;;;10.48;68.64;99958.03;5078665;28;45983;-67
2023/04/12 02:37:20;;;;;;;;;1.50;1.50;;;;;10.49;68.65;99962.41;5078665;28;45433;-68
2023/04/12 02:39:46;;;;;;;;;3.00;3.00;;;;;10.50;68.86;99958.97;5079457;28;45414;-68
2023/04/12 02:42:13;;;;;;;;;2.00;1.50;;;;;10.50;68.23;99953.75;5079433;28;45402;-68
2023/04/12 02:44:39;;;;;;;;;1.00;1.00;;;;;10.47;67.92;99956.28;5078782;28;45355;-68
2023/04/12 02:47:04;;;;;;;;;2.00;1.00;;;;;10.45;68.40;99960.59;5079159;27;45497;-80
2023/04/12 02:49:30;;;;;;;;;2.00;2.00;;;;;10.43;68.94;99964.91;5079433;28;45442;-68
2023/04/12 02:51:55;;;;;;;;;3.00;2.00;;;;;10.40;68.87;99967.44;5078497;28;45712;-83
2023/04/12 02:54:21;;;;;;;;;2.00;2.00;;;;;10.23;69.24;99960.94;5078488;28;46097;-82
2023/04/12 02:56:46;;;;;;;;;3.00;2.00;;;;;10.19;69.79;99975.66;5078941;28;45489;-82
2023/04/12 02:59:12;;;;;;;;;2.00;2.00;;;;;10.11;70.01;99957.22;5078426;28;45569;-83
2023/04/12 03:01:38;;;;;;;;;2.50;2.00;;;;;10.14;70.22;99966.81;5079001;28;45162;-68
2023/04/12 03:04:03;;;;;;;;;2.00;2.00;;;;;10.18;69.93;99962.56;5078690;28;46107;-67
2023/04/12 03:06:29;;;;;;;;;1.00;1.00;;;;;10.24;69.33;99962.69;5078907;28;45560;-69
2023/04/12 03:08:56;;;;;;;;;2.50;2.00;;;;;10.29;69.35;99963.69;5078268;28;45536;-68
2023/04/12 03:11:22;;;;;;;;;2.00;1.00;;;;;10.33;69.39;99955.09;5079203;28;45554;-83
2023/04/12 03:13:47;;;;;;;;;2.00;2.00;;;;;10.35;69.21;99956.91;5078795;28;46150;-68
2023/04/12 03:16:22;;;;;;;;;3.00;2.00;;;;;10.34;69.51;99957.75;5078916;28;45512;-68
2023/04/12 03:18:49;;;;;;;;;3.50;2.75;;;;;10.34;69.61;99959.47;5044146;28;45447;-68
2023/04/12 03:21:15;;;;;;;;;2.00;2.00;;;;;10.35;69.48;99958.63;5060376;28;45545;-67
2023/04/12 03:23:41;;;;;;;;;2.00;2.00;;;;;10.24;69.05;99952.25;5078688;28;46226;-68
2023/04/12 03:26:06;;;;;;;;;2.25;2.00;;;;;10.19;69.58;99948.69;5078606;28;45499;-81
2023/04/12 03:28:32;;;;;;;;;1.00;1.00;;;;;10.21;69.73;99949.59;5078653;28;45410;-68
2023/04/12 03:30:57;;;;;;;;;2.00;2.00;;;;;10.22;69.70;99949.59;5078370;28;45489;-68
2023/04/12 03:33:23;;;;;;;;;1.75;1.00;;;;;10.18;69.93;99947.78;5077925;28;45911;-69
2023/04/12 03:35:49;;;;;;;;;3.00;2.00;;;;;10.20;70.01;99943.47;5078456;28;45611;-68
2023/04/12 03:38:15;;;;;;;;;2.00;2.00;;;;;10.16;69.62;99912.94;5077552;27;45526;-67
2023/04/12 03:40:40;;;;;;;;;2.25;2.00;;;;;10.27;69.75;99927.09;5078791;28;45512;-79
2023/04/12 03:43:06;;;;;;;;;2.75;2.00;;;;;10.27;69.51;99913.19;5078497;28;45965;-68
2023/04/12 03:45:31;;;;;;;;;2.75;2.00;;;;;10.32;69.51;99908.94;5078560;28;45358;-75
2023/04/12 03:47:57;;;;;;;;;2.00;1.75;;;;;10.22;70.05;99888.69;5077358;28;45477;-73
2023/04/12 03:50:22;;;;;;;;;1.00;1.00;;;;;10.32;70.17;99904.59;5078617;27;45213;-68
2023/04/12 03:52:49;;;;;;;;;1.75;1.50;;;;;10.25;70.00;99888.78;5078243;28;45474;-83
2023/04/12 03:55:17;;;;;;;;;3.25;2.00;;;;;10.37;69.56;99903.84;5078089;28;45360;-83
2023/04/12 03:57:42;;;;;;;;;3.00;3.00;;;;;10.31;70.05;99899.38;5042853;28;45472;-68
2023/04/12 04:00:08;;;;;;;;;3.50;2.25;;;;;10.21;70.14;99897.38;5078370;28;45477;-79
2023/04/12 04:02:35;;;;;;;;;1.25;1.25;;;;;10.11;70.57;99896.31;5078312;27;45554;-68
2023/04/12 04:05:02;;;;;;;;;3.00;2.50;;;;;10.11;70.46;99891.09;5078588;27;45390;-67
2023/04/12 04:07:28;;;;;;;;;2.00;2.00;;;;;10.11;70.14;99878.03;5077385;28;45516;-68
2023/04/12 04:09:54;;;;;;;;;3.00;3.00;;;;;10.10;70.33;99884.97;5078117;28;45296;-68
2023/04/12 04:12:20;;;;;;;;;3.00;3.00;;;;;10.10;70.14;99873.66;5077353;28;45406;-68
2023/04/12 04:14:45;;;;;;;;;4.00;2.75;;;;;10.25;69.86;99896.59;5059121;28;45676;-67
2023/04/12 04:17:11;;;;;;;;;1.50;1.50;;;;;10.26;69.96;99893.13;5077641;28;45832;-68
2023/04/12 04:19:36;;;;;;;;;2.50;1.00;;;;;10.30;69.45;99892.38;5078249;28;45252;-68
2023/04/12 04:22:02;;;;;;;;;0.00;0.00;;;;;10.29;69.33;99888.84;5077660;28;45607;-68
2023/04/12 04:24:27;;;;;;;;;2.75;2.75;;;;;10.30;69.32;99893.25;5077636;28;45403;-74
2023/04/12 04:26:53;;;;;;;;;1.00;1.00;;;;;10.32;69.58;99888.94;5077587;28;45488;-80
2023/04/12 04:29:19;;;;;;;;;3.00;2.75;;;;;10.27;69.68;99885.34;5073022;27;45534;-67
2023/04/12 04:31:44;;;;;;;;;3.00;2.75;;;;;10.37;69.61;99889.06;5055702;28;47977;-81
2023/04/12 04:34:10;;;;;;;;;2.00;2.00;;;;;10.35;68.67;99886.41;5077432;27;45499;-68
2023/04/12 04:36:36;;;;;;;;;3.00;3.00;;;;;10.28;69.27;99881.84;5077836;28;45499;-68
2023/04/12 04:39:06;;;;;;;;;3.00;3.00;;;;;10.19;69.66;99865.16;5077731;28;45390;-68
2023/04/12 04:41:38;;;;;;;;;3.00;3.00;;;;;10.22;70.18;99863.47;5076535;28;47211;-68
2023/04/12 04:44:10;;;;;;;;;2.00;2.00;;;;;10.21;70.23;99866.94;5076629;28;45466;-68
2023/04/12 04:46:36;;;;;;;;;2.00;2.00;;;;;10.18;70.49;99858.16;5077505;28;45529;-68
2023/04/12 04:49:03;;;;;;;;;2.50;2.50;;;;;10.19;70.27;99852.09;5077225;28;45488;-68
2023/04/12 04:51:28;;;;;;;;;3.00;2.50;;;;;10.20;70.18;99851.25;5076417;28;46215;-69
2023/04/12 04:53:54;;;;;;;;;2.00;2.00;;;;;10.10;70.98;99838.00;5076396;28;45517;-75
2023/04/12 04:56:22;;;;;;;;;2.75;2.00;;;;;10.10;71.05;99842.34;5072583;28;45372;-68
2023/04/12 04:58:48;;;;;;;;;3.00;2.00;;;;;10.11;71.00;99846.72;5071981;28;45359;-68
2023/04/12 05:01:15;;;;;;;;;3.50;3.00;;;;;10.08;70.99;99829.25;5076279;28;45538;-83
2023/04/12 05:03:43;;;;;;;;;2.50;2.50;;;;;10.21;70.71;99839.97;5076928;28;45341;-70
2023/04/12 05:06:09;;;;;;;;;3.50;3.50;;;;;10.27;70.63;99838.34;5076814;28;45278;-69
2023/04/12 05:08:34;;;;;;;;;3.00;2.00;;;;;10.29;70.34;99848.81;5078001;28;45464;-71
2023/04/12 05:11:00;;;;;;;;;3.50;3.00;;;;;10.32;70.15;99831.50;5058183;28;45595;-67
2023/04/12 05:13:25;;;;;;;;;65.25;51.00;;;;;10.34;70.06;99823.69;5076315;28;45434;-83
2023/04/12 05:15:51;;;;;;;;;8.00;5.75;;;;;10.32;70.25;99826.28;5075978;28;45688;-84
2023/04/12 05:18:17;;;;;;;;;2.50;2.50;;;;;10.35;70.29;99828.97;5077054;28;45495;-67
2023/04/12 05:20:42;;;;;;;;;13.25;11.50;;;;;10.37;70.42;99839.44;5076523;28;45886;-83
2023/04/12 05:23:08;;;;;;;;;15.25;12.00;;;;;10.30;70.86;99843.66;5077137;28;45540;-82
2023/04/12 05:25:33;;;;;;;;;6.25;5.00;;;;;10.26;70.95;99827.88;5075172;28;45440;-76
2023/04/12 05:27:59;;;;;;;;;6.00;4.25;;;;;10.40;70.24;99836.00;5075406;28;45449;-75
2023/04/12 05:30:25;;;;;;;;;5.00;5.00;;;;;10.45;69.89;99827.41;5069520;28;46214;-74
2023/04/12 05:32:50;;;;;;;;;47.25;34.50;;;;;10.47;69.60;99825.72;5075931;28;45320;-83
2023/04/12 05:35:16;;;;;;;;;5.25;4.25;;;;;10.41;70.29;99838.66;5070750;28;45477;-82
2023/04/12 05:37:42;;;;;;;;;3.75;3.00;;;;;10.31;70.40;99821.94;5063399;28;45657;-67
2023/04/12 05:40:08;;;;;;;;;32.75;28.25;;;;;10.45;70.11;99834.38;5075547;28;45588;-67
2023/04/12 05:42:38;;;;;;;;;10.50;10.00;;;;;10.41;70.99;99827.34;5074668;28;45410;-67
2023/04/12 05:45:05;;;;;;;;;5.00;5.00;;;;;10.47;71.04;99832.66;5074969;28;45647;-83
2023/04/12 05:47:30;;;;;;;;;10.50;9.75;;;;;10.48;71.15;99840.50;5076078;28;45238;-73
2023/04/12 05:49:56;;;;;;;;;21.75;18.25;;;;;10.46;71.13;99823.06;5075377;28;45516;-83
2023/04/12 05:52:22;;;;;;;;;8.25;8.25;;;;;10.54;71.28;99831.91;5075041;28;45569;-83
2023/04/12 05:54:51;;;;;;;;;4.00;4.00;;;;;10.55;70.79;99824.13;5076112;28;45623;-76
2023/04/12 05:57:20;;;;;;;;;4.50;4.00;;;;;10.59;70.78;99813.75;5073449;28;45455;-75
2023/04/12 05:59:46;;;;;;;;;4.75;4.50;;;;;10.63;71.06;99824.25;5074976;28;45481;-83
2023/04/12 06:02:11;;;;;;;;;4.00;4.00;;;;;10.65;71.13;99832.13;5056376;28;45426;-81
2023/04/12 06:04:39;;;;;;;;;4.50;3.25;;;;;10.61;71.68;99843.38;5073990;28;45439;-71
2023/04/12 06:07:05;;;;;;;;;3.00;3.00;;;;;10.60;71.18;99826.81;5075485;28;45448;-67
2023/04/12 06:09:31;;;;;;;;;5.00;4.75;;;;;10.75;71.04;99832.31;5062645;28;46026;-68
2023/04/12 06:11:57;;;;;;;;;4.50;4.00;;;;;10.82;70.66;99820.22;5086374;27;45460;-67
2023/04/12 06:14:22;;;;;;;;;6.00;5.00;;;;;11.00;70.83;99821.41;5080140;27;45513;-80
2023/04/12 06:16:48;;;;;;;;;7.00;6.00;;;;;11.22;70.47;99836.59;5080170;27;45698;-83
2023/04/12 06:19:13;;;;;;;;;18.75;16.00;;;;;11.28;70.47;99828.84;5078693;27;46174;-76
2023/04/12 06:21:39;;;;;;;;;16.50;12.25;;;;;11.45;70.36;99817.75;5080840;27;45501;-81
2023/04/12 06:24:05;;;;;;;;;5.75;4.00;;;;;11.62;70.05;99829.34;5077886;27;45382;-85
2023/04/12 06:26:31;;;;;;;;;5.75;4.25;;;;;11.75;69.78;99827.75;5075643;28;45362;-72
2023/04/12 06:28:56;;;;;;;;;9.00;6.75;;;;;11.89;69.38;99827.97;5062823;28;46080;-81
2023/04/12 06:31:22;;;;;;;;;8.50;6.00;;;;;12.04;68.97;99816.84;5078983;28;46096;-83
2023/04/12 06:33:49;;;;;;;;;4.00;3.75;;;;;12.09;68.49;99807.28;5079461;27;45390;-75
2023/04/12 06:36:15;;;;;;;;;6.50;5.00;;;;;12.13;68.22;99812.56;5079737;28;45303;-68
2023/04/12 06:38:41;;;;;;;;;7.00;6.75;;;;;12.19;68.48;99810.91;5078808;28;45784;-81
2023/04/12 06:41:06;;;;;;;;;17.50;14.25;;;;;12.39;68.22;99822.47;5078700;27;45509;-79
2023/04/12 06:43:32;;;;;;;;;15.25;13.75;;;;;12.54;67.92;99821.75;5076932;28;45497;-69
2023/04/12 06:45:58;;;;;;;;;29.00;26.00;;;;;12.63;67.44;99806.13;5078062;28;45408;-76
2023/04/12 06:48:24;;;;;;;;;29.25;26.25;;;;;12.73;67.03;99805.38;5085493;28;45514;-69
2023/04/12 06:50:50;;;;;;;;;261.50;194.50;;;;;12.97;67.01;99805.56;5095824;27;44825;-70
2023/04/12 06:53:15;;;;;;;;;109.00;89.33;;;;;12.95;66.51;99797.66;5097403;28;45603;-73
2023/04/12 06:55:41;;;;;;;;;174.50;149.75;;;;;13.09;66.73;99810.88;5098785;28;45169;-74
2023/04/12 06:58:06;;;;;;;;;76.25;55.50;;;;;13.24;66.37;99802.28;5095259;28;46215;-69
2023/04/12 07:00:33;;;;;;;;;54.50;43.50;;;;;13.55;65.52;99807.75;5073132;28;45259;-67
2023/04/12 07:02:59;;;;;;;;;36.50;34.00;;;;;14.37;64.48;99812.50;5077607;28;45471;-69
2023/04/12 07:05:24;;;;;;;;;30.75;25.50;;;;;15.22;61.21;99805.59;5084270;28;45701;-78
2023/04/12 07:07:50;;;;;;;;;18.00;16.25;;;;;17.55;57.29;99809.63;5065213;28;46397;-77
2023/04/12 07:10:16;;;;;;;;;53.50;44.75;;;;;18.81;53.65;99808.94;5081539;28;45431;-67
2023/04/12 07:12:41;;;;;;;;;30.00;28.25;;;;;19.27;50.62;99807.31;5068938;28;45397;-83
2023/04/12 07:15:07;;;;;;;;;41.75;35.75;;;;;19.70;50.40;99789.78;5075223;28;45329;-67
2023/04/12 07:17:33;;;;;;;;;33.00;30.75;;;;;19.11;50.59;99805.84;5078624;28;45560;-69
2023/04/12 07:19:59;;;;;;;;;26.50;23.50;;;;;18.72;52.82;99810.81;5078434;28;45587;-80
2023/04/12 07:22:24;;;;;;;;;28.00;25.75;;;;;18.39;52.91;99815.72;5078824;28;45561;-81
2023/04/12 07:24:50;;;;;;;;;30.50;28.50;;;;;18.17;53.32;99823.94;5078803;28;45252;-73
2023/04/12 07:27:16;;;;;;;;;24.00;22.75;;;;;18.17;53.91;99831.00;5068690;27;45410;-74
2023/04/12 07:29:42;;;;;;;;;22.00;20.00;;;;;18.03;54.32;99834.66;5078733;28;45232;-72
2023/04/12 07:32:09;;;;;;;;;20.25;16.25;;;;;17.73;54.44;99825.31;5077498;28;45821;-70
2023/04/12 07:34:35;;;;;;;;;14.75;12.25;;;;;17.55;55.15;99829.00;5077629;28;45486;-80
2023/04/12 07:37:01;;;;;;;;;16.25;14.75;;;;;17.58;54.74;99826.31;5077260;28;45445;-71
2023/04/12 07:39:28;;;;;;;;;19.00;18.25;;;;;17.46;55.20;99826.44;5062293;28;45446;-73
2023/04/12 07:41:54;;;;;;;;;17.00;15.00;;;;;17.39;56.05;99835.31;5075855;28;46350;-73
2023/04/12 07:44:20;;;;;;;;;24.00;20.75;;;;;17.39;55.55;99848.50;5076831;28;45394;-81
2023/04/12 07:46:46;;;;;;;;;20.50;19.75;;;;;17.38;55.79;99850.28;5076559;28;46072;-69
2023/04/12 07:49:12;;;;;;;;;22.25;20.50;;;;;17.32;56.00;99838.91;5077475;28;45544;-78
2023/04/12 07:51:37;;;;;;;;;22.00;21.25;;;;;17.16;56.08;99835.53;5078148;28;45549;-68
2023/04/12 07:54:03;;;;;;;;;36.75;32.75;;;;;17.07;56.92;99847.03;5077690;28;45496;-69
2023/04/12 07:56:29;;;;;;;;;21.00;19.25;;;;;16.94;57.81;99842.75;5077933;28;45913;-76
2023/04/12 07:58:54;;;;;;;;;33.50;31.00;;;;;16.84;58.11;99861.25;5059858;28;45481;-78
2023/04/12 08:01:20;;;;;;;;;33.75;28.50;;;;;16.76;58.81;99870.09;5077994;28;45963;-80
2023/04/12 08:03:46;;;;;;;;;11.75;11.75;;;;;16.74;59.12;99877.13;5080949;27;45487;-68
2023/04/12 08:06:12;;;;;;;;;21.25;20.25;;;;;16.68;58.86;99867.50;5084463;27;45499;-81
2023/04/12 08:08:37;;;;;;;;;22.50;22.25;;;;;16.64;59.43;99898.25;5080234;27;46045;-68
2023/04/12 08:11:05;;;;;;;;;17.75;16.50;;;;;16.58;59.78;99921.16;5077994;28;45488;-73
2023/04/12 08:13:33;;;;;;;;;12.75;11.75;;;;;16.42;58.51;99910.69;5076679;28;45525;-72
2023/04/12 08:15:58;;;;;;;;;14.25;13.50;;;;;16.30;58.31;99908.97;5076669;28;45273;-70
2023/04/12 08:18:24;;;;;;;;;10.00;9.75;;;;;16.29;58.49;99896.69;5077019;28;45535;-74
2023/04/12 08:20:50;;;;;;;;;8.00;7.75;;;;;15.75;57.46;99842.41;5077038;28;45623;-72
2023/04/12 08:23:17;;;;;;;;;10.75;9.00;;;;;16.06;58.03;99917.81;5077094;28;45523;-67
2023/04/12 08:25:42;;;;;;;;;11.00;10.00;;;;;16.12;58.40;99934.50;5055347;28;45523;-69
2023/04/12 08:28:08;;;;;;;;;9.50;8.00;;;;;16.03;59.40;99936.25;5064042;28;45480;-69
2023/04/12 08:30:34;;;;;;;;;8.00;7.00;;;;;15.93;61.98;99921.34;5077326;28;45638;-68
2023/04/12 08:32:59;;;;;;;;;7.50;6.25;;;;;15.97;62.67;99933.63;5077566;28;45331;-70
2023/04/12 08:35:25;;;;;;;;;6.75;6.00;;;;;15.97;63.35;99945.94;5076652;28;45417;-83
2023/04/12 08:37:51;;;;;;;;;7.25;5.50;;;;;15.94;65.08;99951.22;5059205;28;45790;-80
2023/04/12 08:40:16;;;;;;;;;7.25;4.25;;;;;15.81;64.49;99966.16;5077053;28;45525;-72
2023/04/12 08:42:42;;;;;;;;;4.00;4.00;;;;;15.76;64.81;99983.72;5077819;28;45279;-84
2023/04/12 08:45:10;;;;;;;;;5.75;4.00;;;;;15.65;64.94;99984.53;5058202;28;46588;-83
2023/04/12 08:47:39;;;;;;;;;6.25;4.75;;;;;15.63;65.61;99982.81;5076853;28;45691;-76
2023/04/12 08:50:09;;;;;;;;;4.75;4.25;;;;;15.63;65.45;99978.41;5076262;28;45541;-68
2023/04/12 08:52:36;;;;;;;;;5.00;5.00;;;;;15.71;64.81;99992.44;5077182;28;45434;-77
2023/04/12 08:55:05;;;;;;;;;5.25;3.75;;;;;15.62;64.82;99978.44;5077431;28;46196;-80
2023/04/12 08:57:32;;;;;;;;;5.00;4.00;;;;;15.66;65.22;99994.22;5075747;28;45461;-67
2023/04/12 09:00:01;;;;;;;;;4.25;4.00;;;;;15.56;65.54;99992.47;5076927;28;45946;-75
2023/04/12 09:02:27;;;;;;;;;4.00;3.50;;;;;15.50;65.46;99997.72;5055587;28;45648;-67
2023/04/12 09:04:54;;;;;;;;;4.00;2.00;;;;;15.57;65.47;100014.38;5076558;28;45400;-76
2023/04/12 09:07:26;;;;;;;;;5.00;4.00;;;;;15.39;66.27;100007.34;5076634;28;45472;-83
2023/04/12 09:09:52;;;;;;;;;5.00;3.00;;;;;15.36;65.71;100000.34;5076612;28;45367;-83
2023/04/12 09:12:21;;;;;;;;;3.00;3.00;;;;;15.35;65.86;100008.22;5076714;28;45383;-79
2023/04/12 09:14:46;;;;;;;;;4.00;2.75;;;;;15.30;66.35;100011.72;5070510;28;46045;-68
2023/04/12 09:17:23;;;;;;;;;2.25;1.50;;;;;15.33;66.26;100013.47;5066152;28;45652;-68
2023/04/12 09:19:48;;;;;;;;;6.00;3.00;;;;;15.27;66.68;100009.06;5076353;28;45375;-68
2023/04/12 09:22:14;;;;;;;;;5.25;3.75;;;;;15.31;67.60;100018.72;5074668;28;45290;-78
2023/04/12 09:24:49;;;;;;;;;6.00;3.00;;;;;15.32;68.06;100024.91;5076434;28;45931;-82
2023/04/12 09:27:15;;;;;;;;;8.00;6.00;;;;;15.23;68.97;100022.22;5076652;28;45520;-68
2023/04/12 09:29:41;;;;;;;;;6.25;5.00;;;;;15.20;68.63;100041.53;5076126;28;45812;-74
2023/04/12 09:32:08;;;;;;;;;2.00;1.33;;;;;15.07;69.22;100048.47;5075417;28;45321;-76
2023/04/12 09:34:35;;;;;;;;;1.00;1.00;;;;;14.92;69.31;100045.78;5076222;28;46022;-81
2023/04/12 09:37:14;;;;;;;;;1.00;0.00;;;;;14.96;69.65;100063.38;5057989;28;45466;-73
2023/04/12 09:39:41;;;;;;;;;0.67;0.00;;;;;14.90;69.84;100077.34;5075356;28;45501;-75
2023/04/12 09:42:08;;;;;;;;;1.00;0.00;;;;;14.92;68.81;100064.19;5068703;28;45434;-85
2023/04/12 09:44:34;;;;;;;;;1.00;0.00;;;;;14.89;69.62;100066.81;5080564;28;46883;-84
2023/04/12 09:47:04;;;;;;;;;1.00;1.00;;;;;14.96;69.81;100092.28;5084988;28;45921;-77
2023/04/12 09:49:40;;;;;;;;;0.33;0.33;;;;;14.96;69.84;100097.56;5080747;28;45217;-77
2023/04/12 09:52:09;;;;;;;;;1.00;0.00;;;;;14.96;69.96;100113.34;5076036;28;45541;-80
2023/04/12 09:54:47;;;;;;;;;0.00;0.00;;;;;14.80;69.75;100116.72;5076039;28;46171;-84
2023/04/12 09:57:16;;;;;;;;;0.00;0.00;;;;;14.71;69.40;100126.31;5075105;28;45375;-84
2023/04/12 09:59:43;;;;;;;;;0.00;0.00;;;;;14.56;69.66;100130.56;5057578;28;45683;-83
2023/04/12 10:02:17;;;;;;;;;0.00;0.00;;;;;14.41;68.91;100137.47;5056988;28;45561;-84
2023/04/12 10:04:43;;;;;;;;;1.67;0.00;;;;;14.27;69.11;100152.25;5074149;28;45433;-78
2023/04/12 10:07:10;;;;;;;;;0.00;0.00;;;;;14.18;69.36;100149.53;5059357;28;45575;-84
2023/04/12 10:09:40;;;;;;;;;0.00;0.00;;;;;14.08;70.65;100164.31;5061246;27;45304;-75
2023/04/12 10:12:07;;;;;;;;;0.00;0.00;;;;;14.01;69.62;100152.91;5078184;28;45650;-68
2023/04/12 10:14:33;;;;;;;;;0.00;0.00;;;;;14.06;70.01;100168.69;5075604;28;45512;-68
2023/04/12 10:17:00;;;;;;;;;0.33;0.00;;;;;13.95;71.19;100178.19;5061391;28;45229;-68
2023/04/12 10:19:28;;;;;;;;;3.00;0.00;;;;;13.93;69.98;100175.56;5078617;28;45443;-68
2023/04/12 10:21:55;;;;;;;;;3.50;3.25;;;;;13.84;70.46;100188.59;5079653;28;45470;-68
2023/04/12 10:24:26;;;;;;;;;0.00;0.00;;;;;13.81;70.59;100176.31;5079389;28;46215;-67
2023/04/12 10:27:01;;;;;;;;;0.00;0.00;;;;;13.83;70.86;100186.84;5079491;28;45432;-68
2023/04/12 10:29:33;;;;;;;;;0.00;0.00;;;;;13.67;71.44;100198.94;5060513;28;45781;-83
2023/04/12 10:32:19;;;;;;;;;0.67;0.00;;;;;13.72;70.43;100205.97;5079162;28;45414;-67
2023/04/12 10:34:50;;;;;;;;;0.00;0.00;;;;;13.78;69.84;100214.78;5078717;28;45504;-68
2023/04/12 10:37:16;;;;;;;;;1.00;0.00;;;;;13.76;69.15;100209.50;5078350;28;45442;-72
2023/04/12 10:39:51;;;;;;;;;0.00;0.00;;;;;13.52;69.15;100210.09;5060524;28;45469;-81
2023/04/12 10:42:21;;;;;;;;;1.00;0.00;;;;;13.47;70.71;100217.06;5060956;28;45580;-69
2023/04/12 10:44:48;;;;;;;;;0.00;0.00;;;;;13.53;69.90;100217.13;5077579;28;46261;-83
2023/04/12 10:47:15;;;;;;;;;1.00;0.00;;;;;13.50;70.52;100219.69;5079185;28;45534;-69
2023/04/12 10:50:20;;;;;;;;;0.00;0.00;;;;;13.55;69.96;100219.75;5079109;27;45282;-68
2023/04/12 10:53:14;;;;;;;;;0.00;0.00;;;;;13.53;70.09;100212.75;5078715;28;45387;-67
2023/04/12 10:55:44;;;;;;;;;0.00;0.00;;;;;13.64;69.90;100219.88;5078244;27;46260;-68
2023/04/12 10:58:10;;;;;;;;;1.00;0.00;;;;;13.73;70.34;100212.13;5078706;28;45414;-68
2023/04/12 11:00:57;;;;;;;;;0.00;0.00;;;;;13.82;69.48;100219.22;5078055;28;45547;-68
2023/04/12 11:03:24;;;;;;;;;1.00;0.00;;;;;13.68;68.95;100195.41;5079093;27;45415;-68
2023/04/12 11:05:57;;;;;;;;;1.25;1.00;;;;;13.81;69.20;100220.09;5065647;28;46071;-83
2023/04/12 11:08:22;;;;;;;;;0.33;0.00;;;;;13.87;69.74;100239.41;5076818;28;45462;-83
2023/04/12 11:10:49;;;;;;;;;0.00;0.00;;;;;13.84;70.10;100244.59;5078236;28;45532;-69
2023/04/12 11:13:15;;;;;;;;;1.00;0.25;;;;;13.95;70.11;100239.50;5077966;28;45444;-68
2023/04/12 11:15:41;;;;;;;;;7.25;6.25;;;;;13.99;69.78;100238.66;5078256;28;45504;-69
2023/04/12 11:18:07;;;;;;;;;1.00;0.50;;;;;14.01;69.01;100249.19;5077235;28;45505;-68
2023/04/12 11:20:33;;;;;;;;;0.00;0.00;;;;;13.93;68.30;100249.97;5078531;28;45371;-68
2023/04/12 11:22:59;;;;;;;;;0.00;0.00;;;;;13.86;67.66;100253.38;5078808;28;45463;-67
2023/04/12 11:25:25;;;;;;;;;0.00;0.00;;;;;13.81;69.27;100244.59;5078467;28;46061;-68
2023/04/12 11:27:53;;;;;;;;;0.00;0.00;;;;;13.84;68.88;100248.97;5076901;28;46579;-68